createdAt,value
2023-03-31T00:00:34.754Z,14.03
2023-03-31T00:03:02.464Z,14.23
2023-03-31T00:05:29.314Z,14.25
2023-03-31T00:08:01.259Z,14.39
2023-03-31T00:10:28.893Z,14.23
2023-03-31T00:12:55.661Z,14.32
2023-03-31T00:15:22.355Z,14.24
2023-03-31T00:17:48.990Z,13.78
2023-03-31T00:20:15.897Z,14.11
2023-03-31T00:22:46.831Z,13.94
2023-03-31T00:25:14.034Z,13.90
2023-03-31T00:27:44.357Z,13.73
2023-03-31T00:30:12.379Z,13.36
2023-03-31T00:32:39.230Z,13.49
2023-03-31T00:35:05.909Z,13.46
2023-03-31T00:37:33.837Z,13.23
2023-03-31T00:40:00.672Z,13.84
2023-03-31T00:42:27.779Z,13.75
2023-03-31T00:45:12.876Z,13.81
2023-03-31T00:47:40.923Z,13.55
2023-03-31T00:50:15.005Z,13.40
2023-03-31T00:52:41.992Z,13.50
2023-03-31T00:55:10.958Z,13.67
2023-03-31T00:57:41.745Z,13.87
2023-03-31T01:00:16.009Z,13.90
2023-03-31T01:03:00.399Z,13.57
2023-03-31T01:05:34.487Z,13.46
2023-03-31T01:08:02.450Z,13.13
2023-03-31T01:10:29.826Z,12.95
2023-03-31T01:12:57.486Z,12.58
2023-03-31T01:15:24.186Z,12.79
2023-03-31T01:17:52.544Z,13.34
2023-03-31T01:20:26.282Z,13.49
2023-03-31T01:23:03.120Z,13.77
2023-03-31T01:25:50.387Z,13.71
2023-03-31T01:28:32.067Z,13.69
2023-03-31T01:31:37.462Z,13.87
2023-03-31T01:34:16.126Z,13.84
2023-03-31T01:36:56.135Z,13.84
2023-03-31T01:39:41.295Z,13.94
2023-03-31T01:42:12.523Z,14.04
2023-03-31T01:44:42.962Z,13.92
2023-03-31T01:47:14.386Z,13.78
2023-03-31T01:49:47.865Z,14.24
2023-03-31T01:52:32.434Z,14.35
2023-03-31T01:55:04.284Z,14.29
2023-03-31T01:57:30.875Z,14.14
2023-03-31T01:59:57.465Z,13.95
2023-03-31T02:02:28.088Z,13.87
2023-03-31T02:05:00.823Z,13.78
2023-03-31T02:07:31.989Z,13.67
2023-03-31T02:10:00.590Z,13.79
2023-03-31T02:12:28.808Z,13.88
2023-03-31T02:14:57.077Z,14.00
2023-03-31T02:17:30.628Z,13.72
2023-03-31T02:19:59.365Z,13.30
2023-03-31T02:22:29.331Z,13.84
2023-03-31T02:24:56.408Z,13.81
2023-03-31T02:27:27.489Z,13.70
2023-03-31T02:29:55.541Z,13.39
2023-03-31T02:32:32.231Z,13.72
2023-03-31T02:34:59.917Z,13.94
2023-03-31T02:37:27.418Z,14.04
2023-03-31T02:39:55.857Z,14.10
2023-03-31T02:42:23.062Z,14.14
2023-03-31T02:44:51.930Z,13.96
2023-03-31T02:47:21.777Z,13.99
2023-03-31T02:49:54.610Z,13.97
2023-03-31T02:52:24.432Z,13.76
2023-03-31T02:55:15.389Z,13.68
2023-03-31T02:57:58.372Z,13.61
2023-03-31T03:00:34.167Z,13.80
2023-03-31T03:03:14.462Z,14.00
2023-03-31T03:05:45.940Z,14.21
2023-03-31T03:08:55.736Z,14.13
2023-03-31T03:11:42.391Z,14.03
2023-03-31T03:14:27.968Z,14.14
2023-03-31T03:17:27.239Z,14.18
2023-03-31T03:19:54.894Z,14.11
2023-03-31T03:22:21.746Z,14.10
2023-03-31T03:24:49.236Z,14.18
2023-03-31T03:27:16.102Z,14.09
2023-03-31T03:29:43.220Z,14.09
2023-03-31T03:32:10.368Z,14.01
2023-03-31T03:34:37.268Z,14.09
2023-03-31T03:37:05.764Z,14.03
2023-03-31T03:39:32.388Z,14.17
2023-03-31T03:41:59.010Z,14.10
2023-03-31T03:44:25.708Z,14.03
2023-03-31T03:46:52.374Z,13.97
2023-03-31T03:49:19.030Z,13.94
2023-03-31T03:51:45.761Z,14.02
2023-03-31T03:54:12.463Z,14.09
2023-03-31T03:56:39.002Z,13.86
2023-03-31T03:59:05.653Z,13.81
2023-03-31T04:01:32.369Z,13.84
2023-03-31T04:03:59.008Z,13.91
2023-03-31T04:06:25.998Z,13.83
2023-03-31T04:08:52.686Z,13.78
2023-03-31T04:11:19.659Z,13.97
2023-03-31T04:13:46.994Z,13.97
2023-03-31T04:16:14.266Z,14.20
2023-03-31T04:18:42.841Z,14.31
2023-03-31T04:21:12.300Z,14.35
2023-03-31T04:23:46.356Z,14.45
2023-03-31T04:26:13.581Z,14.41
2023-03-31T04:28:43.044Z,14.33
2023-03-31T04:31:15.493Z,14.34
2023-03-31T04:33:46.228Z,14.47
2023-03-31T04:36:19.104Z,14.32
2023-03-31T04:38:47.015Z,14.16
2023-03-31T04:41:14.012Z,14.36
2023-03-31T04:43:40.641Z,14.41
2023-03-31T04:46:07.756Z,14.06
2023-03-31T04:48:34.599Z,14.35
2023-03-31T04:51:01.412Z,14.56
2023-03-31T04:53:28.037Z,14.72
2023-03-31T04:55:54.859Z,14.56
2023-03-31T04:58:21.513Z,14.62
2023-03-31T05:00:49.350Z,14.58
2023-03-31T05:03:16.032Z,14.78
2023-03-31T05:05:42.865Z,14.70
2023-03-31T05:08:09.625Z,14.85
2023-03-31T05:10:36.265Z,14.89
2023-03-31T05:13:03.043Z,14.93
2023-03-31T05:15:29.772Z,14.91
2023-03-31T05:17:58.141Z,14.98
2023-03-31T05:20:24.765Z,15.02
2023-03-31T05:22:53.455Z,14.96
2023-03-31T05:25:20.048Z,14.99
2023-03-31T05:27:51.013Z,15.05
2023-03-31T05:30:18.156Z,15.27
2023-03-31T05:32:44.808Z,15.17
2023-03-31T05:35:11.460Z,14.91
2023-03-31T05:37:38.443Z,15.05
2023-03-31T05:40:05.934Z,15.32
2023-03-31T05:42:32.608Z,15.24
2023-03-31T05:44:59.258Z,15.35
2023-03-31T05:47:27.144Z,15.22
2023-03-31T05:49:53.869Z,15.38
2023-03-31T05:52:20.560Z,15.54
2023-03-31T05:54:47.272Z,15.68
2023-03-31T05:57:13.990Z,15.67
2023-03-31T05:59:42.214Z,15.60
2023-03-31T06:02:12.815Z,15.82
2023-03-31T06:04:39.905Z,15.72
2023-03-31T06:07:06.552Z,15.83
2023-03-31T06:09:33.202Z,15.85
2023-03-31T06:11:59.929Z,15.99
2023-03-31T06:14:27.451Z,16.00
2023-03-31T06:16:56.742Z,15.89
2023-03-31T06:19:25.601Z,16.09
2023-03-31T06:21:52.354Z,16.12
2023-03-31T06:24:18.988Z,16.14
2023-03-31T06:26:45.595Z,16.30
2023-03-31T06:29:12.238Z,16.13
2023-03-31T06:31:39.013Z,16.01
2023-03-31T06:34:06.661Z,16.35
2023-03-31T06:36:33.306Z,16.46
2023-03-31T06:38:59.878Z,16.35
2023-03-31T06:41:26.896Z,16.40
2023-03-31T06:43:53.478Z,16.43
2023-03-31T06:46:20.158Z,16.22
2023-03-31T06:48:47.075Z,16.69
2023-03-31T06:51:13.756Z,16.41
2023-03-31T06:53:40.380Z,16.72
2023-03-31T06:56:07.658Z,16.88
2023-03-31T06:58:34.606Z,17.07
2023-03-31T07:01:05.612Z,17.16
2023-03-31T07:03:32.988Z,17.21
2023-03-31T07:05:59.713Z,16.81
2023-03-31T07:08:26.381Z,16.95
2023-03-31T07:10:57.904Z,17.20
2023-03-31T07:13:25.487Z,16.90
2023-03-31T07:15:52.379Z,17.40
2023-03-31T07:18:19.984Z,17.54
2023-03-31T07:20:50.627Z,17.10
2023-03-31T07:23:17.589Z,17.58
2023-03-31T07:25:45.509Z,17.18
2023-03-31T07:28:12.214Z,17.33
2023-03-31T07:30:39.906Z,17.07
2023-03-31T07:33:07.472Z,17.83
2023-03-31T07:35:34.412Z,17.65
2023-03-31T07:38:01.127Z,18.09
2023-03-31T07:40:28.665Z,17.70
2023-03-31T07:42:55.600Z,17.84
2023-03-31T07:45:23.090Z,17.61
2023-03-31T07:47:50.333Z,17.35
2023-03-31T07:50:18.298Z,17.07
2023-03-31T07:52:47.570Z,17.52
2023-03-31T07:55:14.752Z,17.72
2023-03-31T07:57:42.320Z,17.62
2023-03-31T08:00:12.281Z,18.00
2023-03-31T08:02:40.095Z,18.17
2023-03-31T08:05:07.673Z,18.54
2023-03-31T08:07:34.939Z,19.04
2023-03-31T08:10:03.269Z,18.44
2023-03-31T08:12:29.938Z,18.70
2023-03-31T08:14:57.558Z,18.58
2023-03-31T08:17:24.225Z,18.87
2023-03-31T08:19:52.123Z,18.59
2023-03-31T08:22:18.812Z,18.09
2023-03-31T08:24:45.427Z,18.37
2023-03-31T08:27:12.571Z,17.83
2023-03-31T08:29:39.413Z,18.30
2023-03-31T08:32:07.288Z,17.84
2023-03-31T08:34:34.580Z,18.19
2023-03-31T08:37:01.208Z,18.22
2023-03-31T08:39:27.807Z,17.99
2023-03-31T08:42:00.229Z,18.02
2023-03-31T08:44:33.223Z,17.31
2023-03-31T08:47:02.575Z,17.38
2023-03-31T08:49:32.618Z,17.90
2023-03-31T08:52:01.864Z,17.74
2023-03-31T08:54:38.481Z,17.76
2023-03-31T08:57:11.367Z,17.27
2023-03-31T08:59:39.152Z,17.99
2023-03-31T09:02:24.665Z,17.02
2023-03-31T09:05:07.075Z,17.46
2023-03-31T09:07:34.899Z,17.80
2023-03-31T09:10:01.470Z,17.50
2023-03-31T09:12:28.046Z,17.33
2023-03-31T09:15:05.214Z,17.68
2023-03-31T09:17:40.485Z,17.85
2023-03-31T09:20:13.501Z,18.08
2023-03-31T09:22:44.102Z,18.30
2023-03-31T09:25:18.917Z,18.40
2023-03-31T09:27:47.928Z,19.40
2023-03-31T09:30:20.622Z,19.61
2023-03-31T09:32:49.310Z,19.37
2023-03-31T09:35:18.114Z,19.53
2023-03-31T09:37:44.686Z,19.26
2023-03-31T09:40:16.163Z,20.69
2023-03-31T09:42:42.986Z,20.52
2023-03-31T09:45:16.957Z,19.23
2023-03-31T09:47:46.316Z,18.93
2023-03-31T09:50:13.252Z,19.62
2023-03-31T09:52:41.504Z,20.54
2023-03-31T09:55:31.956Z,21.30
2023-03-31T09:58:06.554Z,21.50
2023-03-31T10:00:34.076Z,20.60
2023-03-31T10:03:07.845Z,21.87
2023-03-31T10:05:36.662Z,21.05
2023-03-31T10:08:30.278Z,20.97
2023-03-31T10:10:56.989Z,20.79
2023-03-31T10:13:29.512Z,20.93
2023-03-31T10:16:03.352Z,22.29
2023-03-31T10:18:34.642Z,21.05
2023-03-31T10:21:02.249Z,20.58
2023-03-31T10:23:30.326Z,20.67
2023-03-31T10:25:57.202Z,20.89
2023-03-31T10:28:24.149Z,20.29
2023-03-31T10:30:56.177Z,20.58
2023-03-31T10:33:25.771Z,20.77
2023-03-31T10:35:57.561Z,21.17
2023-03-31T10:38:32.063Z,21.44
2023-03-31T10:40:59.951Z,21.26
2023-03-31T10:43:33.398Z,20.29
2023-03-31T10:46:00.563Z,20.63
2023-03-31T10:48:29.113Z,20.34
2023-03-31T10:50:59.720Z,20.54
2023-03-31T10:53:28.404Z,20.18
2023-03-31T10:56:13.764Z,20.93
2023-03-31T10:58:40.671Z,21.35
2023-03-31T11:01:23.197Z,21.27
2023-03-31T11:03:49.935Z,21.35
2023-03-31T11:06:36.921Z,21.71
2023-03-31T11:09:03.904Z,21.76
2023-03-31T11:11:36.663Z,21.64
2023-03-31T11:14:22.910Z,21.88
2023-03-31T11:16:49.551Z,21.60
2023-03-31T11:19:25.019Z,21.61
2023-03-31T11:21:51.572Z,21.17
2023-03-31T11:24:18.153Z,21.29
2023-03-31T11:26:50.638Z,22.08
2023-03-31T11:29:17.267Z,22.00
2023-03-31T11:31:43.976Z,21.86
2023-03-31T11:34:23.017Z,22.15
2023-03-31T11:37:08.191Z,21.97
2023-03-31T11:39:40.895Z,21.96
2023-03-31T11:42:20.305Z,21.87
2023-03-31T11:44:53.101Z,21.68
2023-03-31T11:47:21.579Z,22.33
2023-03-31T11:49:53.662Z,21.90
2023-03-31T11:52:49.681Z,21.84
2023-03-31T11:55:21.835Z,22.36
2023-03-31T11:57:59.193Z,22.70
2023-03-31T12:00:48.827Z,22.36
2023-03-31T12:03:24.350Z,21.98
2023-03-31T12:05:58.982Z,22.81
2023-03-31T12:08:44.519Z,22.35
2023-03-31T12:11:14.996Z,22.97
2023-03-31T12:14:00.463Z,22.68
2023-03-31T12:16:37.411Z,23.08
2023-03-31T12:19:11.463Z,23.16
2023-03-31T12:21:39.768Z,23.43
2023-03-31T12:24:08.394Z,23.97
2023-03-31T12:26:45.787Z,23.38
2023-03-31T12:29:24.501Z,22.91
2023-03-31T12:31:53.401Z,23.25
2023-03-31T12:34:21.524Z,23.12
2023-03-31T12:36:56.594Z,23.14
2023-03-31T12:39:32.264Z,23.20
2023-03-31T12:42:17.661Z,23.45
2023-03-31T12:45:02.900Z,23.63
2023-03-31T12:47:36.144Z,23.76
2023-03-31T12:50:02.842Z,24.62
2023-03-31T12:52:32.627Z,25.21
2023-03-31T12:55:17.708Z,25.95
2023-03-31T12:57:44.421Z,24.77
2023-03-31T13:00:27.337Z,24.65
2023-03-31T13:03:14.882Z,25.24
2023-03-31T13:05:44.661Z,25.46
2023-03-31T13:08:11.282Z,25.79
2023-03-31T13:10:58.567Z,26.01
2023-03-31T13:13:25.925Z,26.23
2023-03-31T13:15:56.918Z,25.91
2023-03-31T13:18:23.979Z,26.60
2023-03-31T13:21:00.345Z,25.76
2023-03-31T13:23:30.240Z,26.25
2023-03-31T13:25:57.165Z,26.96
2023-03-31T13:28:24.146Z,27.22
2023-03-31T13:30:55.181Z,27.43
2023-03-31T13:33:32.546Z,26.17
2023-03-31T13:36:14.905Z,24.76
2023-03-31T13:39:00.912Z,25.60
2023-03-31T13:41:32.903Z,25.35
2023-03-31T13:43:59.469Z,26.50
2023-03-31T13:46:26.201Z,27.12
2023-03-31T13:48:58.999Z,27.57
2023-03-31T13:51:25.769Z,27.20
2023-03-31T13:53:54.609Z,26.30
2023-03-31T13:56:36.571Z,26.22
2023-03-31T13:59:12.384Z,26.17
2023-03-31T14:01:54.195Z,26.21
2023-03-31T14:04:20.972Z,27.01
2023-03-31T14:06:49.960Z,27.39
2023-03-31T14:09:29.009Z,27.08
2023-03-31T14:11:56.667Z,27.32
2023-03-31T14:14:25.016Z,27.59
2023-03-31T14:16:54.208Z,27.90
2023-03-31T14:19:33.094Z,27.61
2023-03-31T14:22:19.172Z,27.01
2023-03-31T14:24:59.772Z,27.24
2023-03-31T14:27:36.707Z,27.45
2023-03-31T14:30:04.245Z,26.87
2023-03-31T14:32:53.928Z,27.33
2023-03-31T14:35:26.716Z,27.80
2023-03-31T14:37:54.618Z,28.08
2023-03-31T14:40:21.886Z,27.56
2023-03-31T14:42:51.165Z,28.09
2023-03-31T14:45:25.398Z,27.88
2023-03-31T14:48:11.959Z,27.63
2023-03-31T14:50:38.678Z,27.95
2023-03-31T14:53:13.876Z,28.08
2023-03-31T14:55:54.833Z,27.65
2023-03-31T14:58:27.902Z,27.81
2023-03-31T15:00:54.926Z,28.29
2023-03-31T15:03:21.639Z,28.34
2023-03-31T15:05:50.306Z,27.91
2023-03-31T15:08:20.215Z,27.44
2023-03-31T15:10:54.003Z,27.61
2023-03-31T15:13:23.300Z,27.03
2023-03-31T15:15:50.099Z,26.55
2023-03-31T15:18:17.367Z,26.90
2023-03-31T15:20:44.822Z,26.92
2023-03-31T15:23:25.216Z,27.09
2023-03-31T15:25:54.653Z,26.23
2023-03-31T15:28:22.938Z,26.04
2023-03-31T15:30:54.319Z,25.84
2023-03-31T15:33:31.976Z,25.59
2023-03-31T15:35:58.749Z,25.03
2023-03-31T15:38:27.522Z,25.18
2023-03-31T15:40:56.092Z,25.13
2023-03-31T15:43:30.660Z,24.83
2023-03-31T15:45:58.242Z,24.70
2023-03-31T15:48:33.963Z,24.53
2023-03-31T15:51:04.151Z,24.34
2023-03-31T15:53:32.510Z,24.42
2023-03-31T15:56:00.090Z,24.49
2023-03-31T15:58:46.197Z,24.01
2023-03-31T16:01:15.988Z,24.30
2023-03-31T16:03:45.748Z,24.43
2023-03-31T16:06:19.057Z,24.41
2023-03-31T16:08:48.516Z,24.18
2023-03-31T16:11:20.997Z,24.05
2023-03-31T16:13:53.470Z,23.99
2023-03-31T16:16:22.951Z,23.95
2023-03-31T16:18:51.098Z,24.08
2023-03-31T16:21:24.668Z,24.01
2023-03-31T16:23:53.958Z,23.91
2023-03-31T16:26:24.580Z,23.94
2023-03-31T16:28:52.783Z,23.63
2023-03-31T16:31:28.602Z,23.63
2023-03-31T16:33:57.151Z,23.54
2023-03-31T16:36:23.808Z,23.52
2023-03-31T16:38:57.939Z,23.51
2023-03-31T16:41:27.153Z,23.43
2023-03-31T16:43:54.238Z,23.41
2023-03-31T16:46:21.722Z,23.31
2023-03-31T16:48:49.145Z,23.36
2023-03-31T16:51:17.172Z,23.35
2023-03-31T16:53:44.215Z,23.06
2023-03-31T16:56:13.016Z,22.56
2023-03-31T16:58:40.236Z,22.20
2023-03-31T17:01:07.749Z,22.07
2023-03-31T17:03:35.267Z,22.36
2023-03-31T17:06:05.729Z,22.37
2023-03-31T17:08:32.579Z,22.40
2023-03-31T17:11:07.581Z,22.58
2023-03-31T17:13:35.805Z,21.93
2023-03-31T17:18:49.534Z,21.90
2023-03-31T17:21:18.407Z,21.48
2023-03-31T17:23:46.582Z,21.64
2023-03-31T17:26:13.727Z,21.95
2023-03-31T17:28:41.103Z,21.63
2023-03-31T17:31:11.381Z,20.71
2023-03-31T17:33:38.343Z,20.33
2023-03-31T17:36:05.389Z,21.01
2023-03-31T17:38:32.643Z,20.65
2023-03-31T17:41:10.082Z,20.68
2023-03-31T17:43:38.022Z,20.40
2023-03-31T17:46:11.896Z,20.27
2023-03-31T17:48:39.699Z,20.58
2023-03-31T17:51:08.552Z,20.38
2023-03-31T17:53:35.634Z,20.36
2023-03-31T17:56:03.888Z,20.98
2023-03-31T17:58:31.158Z,21.01
2023-03-31T18:00:59.545Z,20.98
2023-03-31T18:03:29.363Z,20.97
2023-03-31T18:05:56.016Z,20.83
2023-03-31T18:08:23.162Z,21.00
2023-03-31T18:10:50.558Z,21.04
2023-03-31T18:13:17.504Z,20.93
2023-03-31T18:15:51.344Z,20.05
2023-03-31T18:18:18.724Z,20.15
2023-03-31T18:20:45.371Z,20.47
2023-03-31T18:23:12.146Z,20.68
2023-03-31T18:25:38.998Z,19.18
2023-03-31T18:28:05.780Z,19.39
2023-03-31T18:30:32.559Z,19.74
2023-03-31T18:32:59.664Z,19.86
2023-03-31T18:35:27.441Z,19.21
2023-03-31T18:37:54.147Z,18.86
2023-03-31T18:40:20.938Z,19.65
2023-03-31T18:42:48.380Z,19.53
2023-03-31T18:45:15.099Z,19.30
2023-03-31T18:47:42.191Z,19.68
2023-03-31T18:50:09.395Z,19.94
2023-03-31T18:52:36.229Z,19.91
2023-03-31T18:55:03.569Z,19.48
2023-03-31T18:57:30.780Z,19.53
2023-03-31T18:59:57.560Z,19.73
2023-03-31T19:02:24.292Z,19.78
2023-03-31T19:04:50.983Z,19.88
2023-03-31T19:07:17.710Z,19.85
2023-03-31T19:09:44.495Z,19.96
2023-03-31T19:12:11.894Z,20.01
2023-03-31T19:14:38.800Z,19.95
2023-03-31T19:17:05.422Z,19.87
2023-03-31T19:19:32.581Z,19.54
2023-03-31T19:21:59.202Z,19.28
2023-03-31T19:24:25.897Z,19.34
2023-03-31T19:26:52.661Z,19.24
2023-03-31T19:29:19.344Z,19.25
2023-03-31T19:31:47.647Z,19.14
2023-03-31T19:34:16.558Z,19.18
2023-03-31T19:36:44.197Z,19.11
2023-03-31T19:39:11.772Z,18.92
2023-03-31T19:41:38.557Z,18.98
2023-03-31T19:44:05.334Z,19.19
2023-03-31T19:46:32.144Z,18.94
2023-03-31T19:48:59.196Z,18.92
2023-03-31T19:51:26.009Z,18.93
2023-03-31T19:53:53.679Z,18.78
2023-03-31T19:56:21.477Z,18.72
2023-03-31T19:58:50.179Z,18.64
2023-03-31T20:01:21.762Z,18.64
2023-03-31T20:03:53.532Z,18.64
2023-03-31T20:06:21.556Z,18.70
2023-03-31T20:08:52.194Z,18.61
2023-03-31T20:11:18.956Z,18.67
2023-03-31T20:13:45.769Z,18.56
2023-03-31T20:16:13.868Z,18.24
2023-03-31T20:18:40.729Z,18.34
2023-03-31T20:21:09.637Z,18.09
2023-03-31T20:23:38.037Z,18.17
2023-03-31T20:26:05.352Z,18.25
2023-03-31T20:28:34.061Z,18.21
2023-03-31T20:31:05.957Z,18.33
2023-03-31T20:33:33.865Z,18.26
2023-03-31T20:36:05.224Z,18.31
2023-03-31T20:38:32.970Z,18.36
2023-03-31T20:41:00.092Z,18.14
2023-03-31T20:43:27.261Z,18.07
2023-03-31T20:46:04.420Z,18.00
2023-03-31T20:48:31.194Z,17.70
2023-03-31T20:50:58.209Z,18.04
2023-03-31T20:53:24.886Z,17.72
2023-03-31T20:55:51.699Z,17.97
2023-03-31T20:58:18.448Z,17.86
2023-03-31T21:00:45.247Z,17.83
2023-03-31T21:03:12.220Z,17.77
2023-03-31T21:05:43.620Z,17.58
2023-03-31T21:08:10.855Z,17.41
2023-03-31T21:10:42.034Z,17.37
2023-03-31T21:13:10.035Z,17.58
2023-03-31T21:15:37.177Z,17.60
2023-03-31T21:18:04.760Z,17.69
2023-03-31T21:20:32.752Z,17.70
2023-03-31T21:23:01.039Z,17.78
2023-03-31T21:25:27.808Z,17.67
2023-03-31T21:27:55.465Z,17.80
2023-03-31T21:30:22.372Z,17.72
2023-03-31T21:32:49.049Z,17.33
2023-03-31T21:35:15.923Z,16.61
2023-03-31T21:37:44.890Z,16.36
2023-03-31T21:40:12.011Z,16.83
2023-03-31T21:42:38.728Z,16.73
2023-03-31T21:45:05.555Z,16.91
2023-03-31T21:47:32.848Z,17.06
2023-03-31T21:50:00.448Z,17.03
2023-03-31T21:52:27.829Z,16.26
2023-03-31T21:54:54.469Z,16.20
2023-03-31T21:57:21.361Z,16.03
2023-03-31T21:59:48.051Z,16.09
2023-03-31T22:02:14.679Z,16.40
2023-03-31T22:04:41.489Z,16.75
2023-03-31T22:07:08.088Z,16.85
2023-03-31T22:09:34.723Z,16.59
2023-03-31T22:12:02.362Z,16.91
2023-03-31T22:14:28.990Z,16.94
2023-03-31T22:16:55.554Z,17.15
2023-03-31T22:19:22.477Z,17.07
2023-03-31T22:21:50.086Z,17.22
2023-03-31T22:24:16.976Z,15.86
2023-03-31T22:26:43.645Z,16.49
2023-03-31T22:29:14.976Z,16.94
2023-03-31T22:31:41.984Z,17.12
2023-03-31T22:34:08.567Z,16.57
2023-03-31T22:36:35.544Z,16.67
2023-03-31T22:39:02.346Z,16.72
2023-03-31T22:41:29.140Z,16.97
2023-03-31T22:43:55.964Z,16.97
2023-03-31T22:46:22.861Z,16.86
2023-03-31T22:48:50.364Z,17.11
2023-03-31T22:51:17.405Z,17.13
2023-03-31T22:53:44.036Z,17.03
2023-03-31T22:56:12.022Z,16.61
2023-03-31T22:58:38.800Z,16.99
2023-03-31T23:01:07.251Z,17.03
2023-03-31T23:03:34.173Z,16.12
2023-03-31T23:06:05.195Z,15.50
2023-03-31T23:08:33.385Z,16.55
2023-03-31T23:11:00.726Z,16.72
2023-03-31T23:13:28.001Z,16.89
2023-03-31T23:15:54.793Z,16.87
2023-03-31T23:18:22.484Z,17.00
2023-03-31T23:20:49.327Z,16.88
2023-03-31T23:23:16.025Z,16.94
2023-03-31T23:25:42.691Z,16.49
2023-03-31T23:28:09.259Z,16.73
2023-03-31T23:30:36.171Z,16.74
2023-03-31T23:33:02.759Z,16.86
2023-03-31T23:35:29.819Z,16.85
2023-03-31T23:37:56.842Z,16.56
2023-03-31T23:40:24.538Z,16.70
2023-03-31T23:42:51.198Z,16.58
2023-03-31T23:45:18.626Z,16.66
2023-03-31T23:47:45.517Z,16.72
2023-03-31T23:50:12.170Z,16.94
2023-03-31T23:52:38.863Z,16.67
2023-03-31T23:55:05.797Z,16.69
2023-03-31T23:57:32.555Z,16.56
2023-03-31T23:59:59.454Z,16.39
